18/05/05 - 20h:38mDenunciar

General Dynamics F-16 Fighting Falcon

Imagem de Ramon Berk, retirada do site Jetphotos.net.





METAR SBPB 182300Z 14003KT 9999 SCT020 BKN300 27/25 Q1008=

Comentários (0)

Fotos postadas a mais de 15 dias não podem receber comentários.